sensor_id;sensor_type;location;lat;lon;timestamp;temperature;humidity
31729;DHT22;18309;43.658;1.312;2023-01-08T00:01:09;12.40;99.90
31729;DHT22;18309;43.658;1.312;2023-01-08T00:03:36;12.50;99.90
31729;DHT22;18309;43.658;1.312;2023-01-08T00:06:04;12.50;99.90
31729;DHT22;18309;43.658;1.312;2023-01-08T00:08:30;12.50;99.90
31729;DHT22;18309;43.658;1.312;2023-01-08T00:10:57;12.50;99.90
31729;DHT22;18309;43.658;1.312;2023-01-08T00:13:23;12.40;99.90
31729;DHT22;18309;43.658;1.312;2023-01-08T00:15:49;12.40;99.90
31729;DHT22;18309;43.658;1.312;2023-01-08T00:18:15;12.40;99.90
31729;DHT22;18309;43.658;1.312;2023-01-08T00:20:42;12.40;99.90
31729;DHT22;18309;43.658;1.312;2023-01-08T00:23:14;12.40;99.90
31729;DHT22;18309;43.658;1.312;2023-01-08T00:25:40;12.30;99.90
31729;DHT22;18309;43.658;1.312;2023-01-08T00:28:05;12.30;99.90
31729;DHT22;18309;43.658;1.312;2023-01-08T00:30:44;12.30;99.90
31729;DHT22;18309;43.658;1.312;2023-01-08T00:33:10;12.30;99.90
31729;DHT22;18309;43.658;1.312;2023-01-08T00:35:39;12.30;99.90
31729;DHT22;18309;43.658;1.312;2023-01-08T00:38:05;12.30;99.90
31729;DHT22;18309;43.658;1.312;2023-01-08T00:40:33;12.30;99.90
31729;DHT22;18309;43.658;1.312;2023-01-08T00:42:59;12.30;99.90
31729;DHT22;18309;43.658;1.312;2023-01-08T00:45:24;12.30;99.90
31729;DHT22;18309;43.658;1.312;2023-01-08T00:47:51;12.30;99.90
31729;DHT22;18309;43.658;1.312;2023-01-08T00:50:17;12.30;99.90
31729;DHT22;18309;43.658;1.312;2023-01-08T00:52:42;12.20;99.90
31729;DHT22;18309;43.658;1.312;2023-01-08T00:55:08;12.20;99.90
31729;DHT22;18309;43.658;1.312;2023-01-08T00:57:35;12.20;99.90
31729;DHT22;18309;43.658;1.312;2023-01-08T01:00:03;12.20;99.90
31729;DHT22;18309;43.658;1.312;2023-01-08T01:02:29;12.20;99.90
31729;DHT22;18309;43.658;1.312;2023-01-08T01:04:55;12.20;99.90
31729;DHT22;18309;43.658;1.312;2023-01-08T01:07:21;12.20;99.90
31729;DHT22;18309;43.658;1.312;2023-01-08T01:09:46;12.20;99.90
31729;DHT22;18309;43.658;1.312;2023-01-08T01:12:12;12.10;99.90
31729;DHT22;18309;43.658;1.312;2023-01-08T01:14:38;12.10;99.90
31729;DHT22;18309;43.658;1.312;2023-01-08T01:17:04;12.10;99.90
31729;DHT22;18309;43.658;1.312;2023-01-08T01:19:29;12.10;99.90
31729;DHT22;18309;43.658;1.312;2023-01-08T01:21:55;12.10;99.90
31729;DHT22;18309;43.658;1.312;2023-01-08T01:24:21;12.10;99.90
31729;DHT22;18309;43.658;1.312;2023-01-08T01:26:50;12.00;99.90
31729;DHT22;18309;43.658;1.312;2023-01-08T01:29:16;12.10;99.90
31729;DHT22;18309;43.658;1.312;2023-01-08T01:31:42;12.00;99.90
31729;DHT22;18309;43.658;1.312;2023-01-08T01:34:09;12.00;99.90
31729;DHT22;18309;43.658;1.312;2023-01-08T01:36:35;12.00;99.90
31729;DHT22;18309;43.658;1.312;2023-01-08T01:39:01;12.00;99.90
31729;DHT22;18309;43.658;1.312;2023-01-08T01:43:56;12.00;99.90
31729;DHT22;18309;43.658;1.312;2023-01-08T01:46:29;12.00;99.90
31729;DHT22;18309;43.658;1.312;2023-01-08T01:49:05;12.00;99.90
31729;DHT22;18309;43.658;1.312;2023-01-08T01:51:33;12.00;99.90
31729;DHT22;18309;43.658;1.312;2023-01-08T01:54:02;11.90;99.90
31729;DHT22;18309;43.658;1.312;2023-01-08T01:56:30;12.00;99.90
31729;DHT22;18309;43.658;1.312;2023-01-08T01:58:56;11.90;99.90
31729;DHT22;18309;43.658;1.312;2023-01-08T02:01:22;11.90;99.90
31729;DHT22;18309;43.658;1.312;2023-01-08T02:03:48;11.90;99.90
31729;DHT22;18309;43.658;1.312;2023-01-08T02:08:55;11.90;99.90
31729;DHT22;18309;43.658;1.312;2023-01-08T02:11:28;11.90;99.90
31729;DHT22;18309;43.658;1.312;2023-01-08T02:14:48;11.90;99.90
31729;DHT22;18309;43.658;1.312;2023-01-08T02:16:55;11.90;99.90
31729;DHT22;18309;43.658;1.312;2023-01-08T02:27:27;11.90;99.90
31729;DHT22;18309;43.658;1.312;2023-01-08T02:29:55;11.90;99.90
31729;DHT22;18309;43.658;1.312;2023-01-08T02:32:33;11.80;99.90
31729;DHT22;18309;43.658;1.312;2023-01-08T02:35:02;11.80;99.90
31729;DHT22;18309;43.658;1.312;2023-01-08T02:37:28;11.80;99.90
31729;DHT22;18309;43.658;1.312;2023-01-08T02:40:20;11.90;99.90
31729;DHT22;18309;43.658;1.312;2023-01-08T02:42:58;11.90;99.90
31729;DHT22;18309;43.658;1.312;2023-01-08T02:45:45;11.90;99.90
31729;DHT22;18309;43.658;1.312;2023-01-08T02:48:36;11.90;99.90
31729;DHT22;18309;43.658;1.312;2023-01-08T02:51:04;11.90;99.90
31729;DHT22;18309;43.658;1.312;2023-01-08T02:53:36;11.90;99.90
31729;DHT22;18309;43.658;1.312;2023-01-08T02:56:25;11.90;99.90
31729;DHT22;18309;43.658;1.312;2023-01-08T02:58:53;11.90;99.90
31729;DHT22;18309;43.658;1.312;2023-01-08T03:01:21;11.90;99.90
31729;DHT22;18309;43.658;1.312;2023-01-08T03:03:57;11.80;99.90
31729;DHT22;18309;43.658;1.312;2023-01-08T03:06:25;11.90;99.90
31729;DHT22;18309;43.658;1.312;2023-01-08T03:08:52;11.90;99.90
31729;DHT22;18309;43.658;1.312;2023-01-08T03:11:21;11.80;99.90
31729;DHT22;18309;43.658;1.312;2023-01-08T03:13:59;11.90;99.90
31729;DHT22;18309;43.658;1.312;2023-01-08T03:21:47;11.90;99.90
31729;DHT22;18309;43.658;1.312;2023-01-08T03:24:18;11.90;99.90
31729;DHT22;18309;43.658;1.312;2023-01-08T03:26:45;11.90;99.90
31729;DHT22;18309;43.658;1.312;2023-01-08T03:29:16;11.80;99.90
31729;DHT22;18309;43.658;1.312;2023-01-08T03:31:43;11.90;99.90
31729;DHT22;18309;43.658;1.312;2023-01-08T03:34:12;11.80;99.90
31729;DHT22;18309;43.658;1.312;2023-01-08T03:36:40;11.80;99.90
31729;DHT22;18309;43.658;1.312;2023-01-08T03:39:27;11.80;99.90
31729;DHT22;18309;43.658;1.312;2023-01-08T03:41:56;11.80;99.90
31729;DHT22;18309;43.658;1.312;2023-01-08T03:44:24;11.80;99.90
31729;DHT22;18309;43.658;1.312;2023-01-08T03:46:52;11.80;99.90
31729;DHT22;18309;43.658;1.312;2023-01-08T03:49:20;11.80;99.90
31729;DHT22;18309;43.658;1.312;2023-01-08T03:51:47;11.80;99.90
31729;DHT22;18309;43.658;1.312;2023-01-08T03:54:18;11.80;99.90
31729;DHT22;18309;43.658;1.312;2023-01-08T03:56:44;11.80;99.90
31729;DHT22;18309;43.658;1.312;2023-01-08T03:59:11;11.80;99.90
31729;DHT22;18309;43.658;1.312;2023-01-08T04:01:37;11.80;99.90
31729;DHT22;18309;43.658;1.312;2023-01-08T04:04:03;11.80;99.90
31729;DHT22;18309;43.658;1.312;2023-01-08T04:06:29;11.80;99.90
31729;DHT22;18309;43.658;1.312;2023-01-08T04:08:54;11.80;99.90
31729;DHT22;18309;43.658;1.312;2023-01-08T04:11:22;11.80;99.90
31729;DHT22;18309;43.658;1.312;2023-01-08T04:13:51;11.80;99.90
31729;DHT22;18309;43.658;1.312;2023-01-08T04:16:16;11.80;99.90
31729;DHT22;18309;43.658;1.312;2023-01-08T04:18:42;11.80;99.90
31729;DHT22;18309;43.658;1.312;2023-01-08T04:21:08;11.70;99.90
31729;DHT22;18309;43.658;1.312;2023-01-08T04:23:33;11.70;99.90
31729;DHT22;18309;43.658;1.312;2023-01-08T04:26:03;11.80;99.90
31729;DHT22;18309;43.658;1.312;2023-01-08T04:28:29;11.70;99.90
31729;DHT22;18309;43.658;1.312;2023-01-08T04:30:55;11.70;99.90
31729;DHT22;18309;43.658;1.312;2023-01-08T04:33:21;11.70;99.90
31729;DHT22;18309;43.658;1.312;2023-01-08T04:35:46;11.70;99.90
31729;DHT22;18309;43.658;1.312;2023-01-08T04:38:12;11.70;99.90
31729;DHT22;18309;43.658;1.312;2023-01-08T04:40:38;11.70;99.90
31729;DHT22;18309;43.658;1.312;2023-01-08T04:43:03;11.70;99.90
31729;DHT22;18309;43.658;1.312;2023-01-08T04:45:29;11.70;99.90
31729;DHT22;18309;43.658;1.312;2023-01-08T04:47:58;11.70;99.90
31729;DHT22;18309;43.658;1.312;2023-01-08T04:50:24;11.60;99.90
31729;DHT22;18309;43.658;1.312;2023-01-08T04:52:50;11.70;99.90
31729;DHT22;18309;43.658;1.312;2023-01-08T04:55:16;11.60;99.90
31729;DHT22;18309;43.658;1.312;2023-01-08T04:57:42;11.70;99.90
31729;DHT22;18309;43.658;1.312;2023-01-08T05:00:08;11.60;99.90
31729;DHT22;18309;43.658;1.312;2023-01-08T05:02:34;11.60;99.90
31729;DHT22;18309;43.658;1.312;2023-01-08T05:05:00;11.70;99.90
31729;DHT22;18309;43.658;1.312;2023-01-08T05:07:26;11.60;99.90
31729;DHT22;18309;43.658;1.312;2023-01-08T05:09:51;11.60;99.90
31729;DHT22;18309;43.658;1.312;2023-01-08T05:12:17;11.60;99.90
31729;DHT22;18309;43.658;1.312;2023-01-08T05:14:43;11.60;99.90
31729;DHT22;18309;43.658;1.312;2023-01-08T05:17:09;11.60;99.90
31729;DHT22;18309;43.658;1.312;2023-01-08T05:19:34;11.60;99.90
31729;DHT22;18309;43.658;1.312;2023-01-08T05:22:00;11.60;99.90
31729;DHT22;18309;43.658;1.312;2023-01-08T05:24:26;11.60;99.90
31729;DHT22;18309;43.658;1.312;2023-01-08T05:26:51;11.50;99.90
31729;DHT22;18309;43.658;1.312;2023-01-08T05:29:17;11.50;99.90
31729;DHT22;18309;43.658;1.312;2023-01-08T05:31:44;11.50;99.90
31729;DHT22;18309;43.658;1.312;2023-01-08T05:34:09;11.60;99.90
31729;DHT22;18309;43.658;1.312;2023-01-08T05:36:35;11.50;99.90
31729;DHT22;18309;43.658;1.312;2023-01-08T05:39:01;11.50;99.90
31729;DHT22;18309;43.658;1.312;2023-01-08T05:41:27;11.50;99.90
31729;DHT22;18309;43.658;1.312;2023-01-08T05:43:52;11.60;99.90
31729;DHT22;18309;43.658;1.312;2023-01-08T05:46:18;11.50;99.90
31729;DHT22;18309;43.658;1.312;2023-01-08T05:48:44;11.50;99.90
31729;DHT22;18309;43.658;1.312;2023-01-08T05:51:09;11.50;99.90
31729;DHT22;18309;43.658;1.312;2023-01-08T05:53:35;11.50;99.90
31729;DHT22;18309;43.658;1.312;2023-01-08T05:56:10;11.50;99.90
31729;DHT22;18309;43.658;1.312;2023-01-08T05:58:36;11.50;99.90
31729;DHT22;18309;43.658;1.312;2023-01-08T06:01:12;11.50;99.90
31729;DHT22;18309;43.658;1.312;2023-01-08T06:03:38;11.60;99.90
31729;DHT22;18309;43.658;1.312;2023-01-08T06:06:05;11.50;99.90
31729;DHT22;18309;43.658;1.312;2023-01-08T06:08:31;11.50;99.90
31729;DHT22;18309;43.658;1.312;2023-01-08T06:10:58;11.50;99.90
31729;DHT22;18309;43.658;1.312;2023-01-08T06:13:25;11.50;99.90
31729;DHT22;18309;43.658;1.312;2023-01-08T06:15:51;11.50;99.90
31729;DHT22;18309;43.658;1.312;2023-01-08T06:18:17;11.50;99.90
31729;DHT22;18309;43.658;1.312;2023-01-08T06:20:42;11.50;99.90
31729;DHT22;18309;43.658;1.312;2023-01-08T06:23:08;11.50;99.90
31729;DHT22;18309;43.658;1.312;2023-01-08T06:25:35;11.50;99.90
31729;DHT22;18309;43.658;1.312;2023-01-08T06:28:01;11.50;99.90
31729;DHT22;18309;43.658;1.312;2023-01-08T06:30:27;11.50;99.90
31729;DHT22;18309;43.658;1.312;2023-01-08T06:32:57;11.50;99.90
31729;DHT22;18309;43.658;1.312;2023-01-08T06:35:23;11.50;99.90
31729;DHT22;18309;43.658;1.312;2023-01-08T06:37:49;11.50;99.90
31729;DHT22;18309;43.658;1.312;2023-01-08T06:40:15;11.50;99.90
31729;DHT22;18309;43.658;1.312;2023-01-08T06:42:41;11.50;99.90
31729;DHT22;18309;43.658;1.312;2023-01-08T06:45:08;11.50;99.90
31729;DHT22;18309;43.658;1.312;2023-01-08T06:47:34;11.50;99.90
31729;DHT22;18309;43.658;1.312;2023-01-08T06:50:00;11.50;99.90
31729;DHT22;18309;43.658;1.312;2023-01-08T06:52:26;11.50;99.90
31729;DHT22;18309;43.658;1.312;2023-01-08T06:54:52;11.50;99.90
31729;DHT22;18309;43.658;1.312;2023-01-08T06:57:17;11.50;99.90
31729;DHT22;18309;43.658;1.312;2023-01-08T06:59:43;11.50;99.90
31729;DHT22;18309;43.658;1.312;2023-01-08T07:02:12;11.50;99.90
31729;DHT22;18309;43.658;1.312;2023-01-08T07:04:39;11.50;99.90
31729;DHT22;18309;43.658;1.312;2023-01-08T07:07:05;11.50;99.90
31729;DHT22;18309;43.658;1.312;2023-01-08T07:09:33;11.50;99.90
31729;DHT22;18309;43.658;1.312;2023-01-08T07:11:58;11.50;99.90
31729;DHT22;18309;43.658;1.312;2023-01-08T07:14:24;11.40;99.90
31729;DHT22;18309;43.658;1.312;2023-01-08T07:16:50;11.40;99.90
31729;DHT22;18309;43.658;1.312;2023-01-08T07:19:16;11.40;99.90
31729;DHT22;18309;43.658;1.312;2023-01-08T07:21:41;11.40;99.90
31729;DHT22;18309;43.658;1.312;2023-01-08T07:24:07;11.40;99.90
31729;DHT22;18309;43.658;1.312;2023-01-08T07:26:33;11.40;99.90
31729;DHT22;18309;43.658;1.312;2023-01-08T07:28:59;11.40;99.90
31729;DHT22;18309;43.658;1.312;2023-01-08T07:31:25;11.40;99.90
31729;DHT22;18309;43.658;1.312;2023-01-08T07:33:51;11.30;99.90
31729;DHT22;18309;43.658;1.312;2023-01-08T07:36:17;11.30;99.90
31729;DHT22;18309;43.658;1.312;2023-01-08T07:38:47;11.30;99.90
31729;DHT22;18309;43.658;1.312;2023-01-08T07:41:14;11.30;99.90
31729;DHT22;18309;43.658;1.312;2023-01-08T07:43:40;11.30;99.90
31729;DHT22;18309;43.658;1.312;2023-01-08T07:46:06;11.30;99.90
31729;DHT22;18309;43.658;1.312;2023-01-08T07:48:32;11.30;99.90
31729;DHT22;18309;43.658;1.312;2023-01-08T07:51:02;11.20;99.90
31729;DHT22;18309;43.658;1.312;2023-01-08T07:53:28;11.20;99.90
31729;DHT22;18309;43.658;1.312;2023-01-08T07:56:02;11.20;99.90
31729;DHT22;18309;43.658;1.312;2023-01-08T07:58:30;11.20;99.90
31729;DHT22;18309;43.658;1.312;2023-01-08T08:00:56;11.20;99.90
31729;DHT22;18309;43.658;1.312;2023-01-08T08:03:23;11.20;99.90
31729;DHT22;18309;43.658;1.312;2023-01-08T08:05:49;11.30;99.90
31729;DHT22;18309;43.658;1.312;2023-01-08T08:08:15;11.20;99.90
31729;DHT22;18309;43.658;1.312;2023-01-08T08:10:41;11.30;99.90
31729;DHT22;18309;43.658;1.312;2023-01-08T08:13:08;11.20;99.90
31729;DHT22;18309;43.658;1.312;2023-01-08T08:15:34;11.30;99.90
31729;DHT22;18309;43.658;1.312;2023-01-08T08:18:01;11.30;99.90
31729;DHT22;18309;43.658;1.312;2023-01-08T08:20:27;11.30;99.90
31729;DHT22;18309;43.658;1.312;2023-01-08T08:22:59;11.30;99.90
31729;DHT22;18309;43.658;1.312;2023-01-08T08:25:26;11.30;99.90
31729;DHT22;18309;43.658;1.312;2023-01-08T08:27:51;11.30;99.90
31729;DHT22;18309;43.658;1.312;2023-01-08T08:30:20;11.30;99.90
31729;DHT22;18309;43.658;1.312;2023-01-08T08:32:46;11.30;99.90
31729;DHT22;18309;43.658;1.312;2023-01-08T08:35:11;11.20;99.90
31729;DHT22;18309;43.658;1.312;2023-01-08T08:37:37;11.20;99.90
31729;DHT22;18309;43.658;1.312;2023-01-08T08:40:03;11.20;99.90
31729;DHT22;18309;43.658;1.312;2023-01-08T08:42:28;11.20;99.90
31729;DHT22;18309;43.658;1.312;2023-01-08T08:44:54;11.30;99.90
31729;DHT22;18309;43.658;1.312;2023-01-08T08:47:20;11.30;99.90
31729;DHT22;18309;43.658;1.312;2023-01-08T08:49:45;11.30;99.90
31729;DHT22;18309;43.658;1.312;2023-01-08T08:52:11;11.30;99.90
31729;DHT22;18309;43.658;1.312;2023-01-08T08:54:46;11.10;99.90
31729;DHT22;18309;43.658;1.312;2023-01-08T08:57:12;10.90;99.90
31729;DHT22;18309;43.658;1.312;2023-01-08T08:59:38;10.80;99.90
31729;DHT22;18309;43.658;1.312;2023-01-08T09:02:03;10.70;99.90
31729;DHT22;18309;43.658;1.312;2023-01-08T09:04:32;10.60;99.90
31729;DHT22;18309;43.658;1.312;2023-01-08T09:06:58;10.60;99.90
31729;DHT22;18309;43.658;1.312;2023-01-08T09:09:24;10.50;99.90
31729;DHT22;18309;43.658;1.312;2023-01-08T09:11:51;10.50;99.90
31729;DHT22;18309;43.658;1.312;2023-01-08T09:14:17;10.50;99.90
31729;DHT22;18309;43.658;1.312;2023-01-08T09:16:43;10.50;99.90
31729;DHT22;18309;43.658;1.312;2023-01-08T09:19:09;10.50;99.90
31729;DHT22;18309;43.658;1.312;2023-01-08T09:21:35;10.50;99.90
31729;DHT22;18309;43.658;1.312;2023-01-08T09:24:01;10.40;99.90
31729;DHT22;18309;43.658;1.312;2023-01-08T09:26:28;10.50;99.90
31729;DHT22;18309;43.658;1.312;2023-01-08T09:28:56;10.50;99.90
31729;DHT22;18309;43.658;1.312;2023-01-08T09:31:22;10.50;99.90
31729;DHT22;18309;43.658;1.312;2023-01-08T09:33:48;10.60;99.90
31729;DHT22;18309;43.658;1.312;2023-01-08T09:36:14;10.60;99.90
31729;DHT22;18309;43.658;1.312;2023-01-08T09:38:40;10.50;99.90
31729;DHT22;18309;43.658;1.312;2023-01-08T09:41:32;10.50;99.90
31729;DHT22;18309;43.658;1.312;2023-01-08T09:44:06;10.50;99.90
31729;DHT22;18309;43.658;1.312;2023-01-08T09:46:33;10.60;99.90
31729;DHT22;18309;43.658;1.312;2023-01-08T09:49:04;10.70;99.90
31729;DHT22;18309;43.658;1.312;2023-01-08T09:51:34;10.70;99.90
31729;DHT22;18309;43.658;1.312;2023-01-08T09:54:01;10.70;99.90
31729;DHT22;18309;43.658;1.312;2023-01-08T09:56:27;10.70;99.90
31729;DHT22;18309;43.658;1.312;2023-01-08T09:58:58;10.80;99.90
31729;DHT22;18309;43.658;1.312;2023-01-08T10:01:27;10.90;99.90
31729;DHT22;18309;43.658;1.312;2023-01-08T10:06:30;11.00;99.90
31729;DHT22;18309;43.658;1.312;2023-01-08T10:08:56;11.00;99.90
31729;DHT22;18309;43.658;1.312;2023-01-08T10:11:24;11.00;99.90
31729;DHT22;18309;43.658;1.312;2023-01-08T10:13:54;10.90;99.90
31729;DHT22;18309;43.658;1.312;2023-01-08T10:16:29;11.00;99.90
31729;DHT22;18309;43.658;1.312;2023-01-08T10:18:58;11.00;99.90
31729;DHT22;18309;43.658;1.312;2023-01-08T10:21:29;11.00;99.90
31729;DHT22;18309;43.658;1.312;2023-01-08T10:23:55;11.00;99.90
31729;DHT22;18309;43.658;1.312;2023-01-08T10:26:33;11.00;99.90
31729;DHT22;18309;43.658;1.312;2023-01-08T10:29:15;10.90;99.90
31729;DHT22;18309;43.658;1.312;2023-01-08T10:31:50;11.00;99.90
31729;DHT22;18309;43.658;1.312;2023-01-08T10:37:28;11.00;99.90
31729;DHT22;18309;43.658;1.312;2023-01-08T10:40:00;11.00;99.90
31729;DHT22;18309;43.658;1.312;2023-01-08T10:42:26;11.00;99.90
31729;DHT22;18309;43.658;1.312;2023-01-08T10:45:00;11.10;99.90
31729;DHT22;18309;43.658;1.312;2023-01-08T10:47:30;11.10;99.90
31729;DHT22;18309;43.658;1.312;2023-01-08T10:49:58;11.10;99.90
31729;DHT22;18309;43.658;1.312;2023-01-08T10:52:30;11.10;99.90
31729;DHT22;18309;43.658;1.312;2023-01-08T10:55:09;11.10;99.90
31729;DHT22;18309;43.658;1.312;2023-01-08T10:57:35;11.10;99.90
31729;DHT22;18309;43.658;1.312;2023-01-08T11:00:01;11.00;99.90
31729;DHT22;18309;43.658;1.312;2023-01-08T11:02:35;11.10;99.90
31729;DHT22;18309;43.658;1.312;2023-01-08T11:05:02;11.10;99.90
31729;DHT22;18309;43.658;1.312;2023-01-08T11:07:31;11.20;99.90
31729;DHT22;18309;43.658;1.312;2023-01-08T11:09:59;11.20;99.90
31729;DHT22;18309;43.658;1.312;2023-01-08T11:12:37;11.20;99.90
31729;DHT22;18309;43.658;1.312;2023-01-08T11:17:42;11.30;99.90
31729;DHT22;18309;43.658;1.312;2023-01-08T11:20:29;11.30;99.90
31729;DHT22;18309;43.658;1.312;2023-01-08T11:23:25;11.30;99.90
31729;DHT22;18309;43.658;1.312;2023-01-08T11:26:08;11.30;99.90
31729;DHT22;18309;43.658;1.312;2023-01-08T11:29:06;11.30;99.90
31729;DHT22;18309;43.658;1.312;2023-01-08T11:34:41;11.30;99.90
31729;DHT22;18309;43.658;1.312;2023-01-08T11:37:35;11.40;99.90
31729;DHT22;18309;43.658;1.312;2023-01-08T11:40:00;11.30;99.90
31729;DHT22;18309;43.658;1.312;2023-01-08T11:42:29;11.30;99.90
31729;DHT22;18309;43.658;1.312;2023-01-08T11:59:02;11.30;99.90
31729;DHT22;18309;43.658;1.312;2023-01-08T12:04:47;11.30;99.90
31729;DHT22;18309;43.658;1.312;2023-01-08T12:10:07;11.40;99.90
31729;DHT22;18309;43.658;1.312;2023-01-08T12:13:10;11.30;99.90
31729;DHT22;18309;43.658;1.312;2023-01-08T12:34:37;11.30;99.90
31729;DHT22;18309;43.658;1.312;2023-01-08T12:37:17;11.40;99.90
31729;DHT22;18309;43.658;1.312;2023-01-08T12:40:26;11.30;99.90
31729;DHT22;18309;43.658;1.312;2023-01-08T12:42:53;11.40;99.90
31729;DHT22;18309;43.658;1.312;2023-01-08T12:45:31;11.40;99.90
31729;DHT22;18309;43.658;1.312;2023-01-08T12:48:06;11.40;99.90
31729;DHT22;18309;43.658;1.312;2023-01-08T12:50:49;11.50;99.90
31729;DHT22;18309;43.658;1.312;2023-01-08T12:58:30;11.50;99.90
31729;DHT22;18309;43.658;1.312;2023-01-08T13:03:26;11.50;99.90
31729;DHT22;18309;43.658;1.312;2023-01-08T13:06:04;11.50;99.90
31729;DHT22;18309;43.658;1.312;2023-01-08T13:08:32;11.60;99.90
31729;DHT22;18309;43.658;1.312;2023-01-08T13:10:59;11.60;99.90
31729;DHT22;18309;43.658;1.312;2023-01-08T13:13:30;11.70;99.90
31729;DHT22;18309;43.658;1.312;2023-01-08T13:18:57;11.70;99.90
31729;DHT22;18309;43.658;1.312;2023-01-08T13:21:42;11.70;99.90
31729;DHT22;18309;43.658;1.312;2023-01-08T13:26:55;11.60;99.90
31729;DHT22;18309;43.658;1.312;2023-01-08T13:31:52;11.60;99.90
31729;DHT22;18309;43.658;1.312;2023-01-08T13:34:38;11.60;99.90
31729;DHT22;18309;43.658;1.312;2023-01-08T13:37:07;11.60;99.90
31729;DHT22;18309;43.658;1.312;2023-01-08T13:39:37;11.70;99.90
31729;DHT22;18309;43.658;1.312;2023-01-08T13:42:22;11.60;99.90
31729;DHT22;18309;43.658;1.312;2023-01-08T13:44:51;11.70;99.90
31729;DHT22;18309;43.658;1.312;2023-01-08T13:47:34;11.70;99.90
31729;DHT22;18309;43.658;1.312;2023-01-08T13:50:12;11.70;99.90
31729;DHT22;18309;43.658;1.312;2023-01-08T13:55:13;11.60;99.90
31729;DHT22;18309;43.658;1.312;2023-01-08T13:57:43;11.50;99.90
31729;DHT22;18309;43.658;1.312;2023-01-08T14:00:18;11.50;99.90
31729;DHT22;18309;43.658;1.312;2023-01-08T14:02:45;11.50;99.90
31729;DHT22;18309;43.658;1.312;2023-01-08T14:05:24;11.50;99.90
31729;DHT22;18309;43.658;1.312;2023-01-08T14:07:50;11.50;99.90
31729;DHT22;18309;43.658;1.312;2023-01-08T14:10:16;11.50;99.90
31729;DHT22;18309;43.658;1.312;2023-01-08T14:12:42;11.50;99.90
31729;DHT22;18309;43.658;1.312;2023-01-08T14:15:29;11.40;99.90
31729;DHT22;18309;43.658;1.312;2023-01-08T14:17:55;11.40;99.90
31729;DHT22;18309;43.658;1.312;2023-01-08T14:20:37;11.40;99.90
31729;DHT22;18309;43.658;1.312;2023-01-08T14:23:12;11.50;99.90
31729;DHT22;18309;43.658;1.312;2023-01-08T14:25:41;11.50;99.90
31729;DHT22;18309;43.658;1.312;2023-01-08T14:28:16;11.50;99.90
31729;DHT22;18309;43.658;1.312;2023-01-08T14:33:14;11.50;99.90
31729;DHT22;18309;43.658;1.312;2023-01-08T14:35:41;11.50;99.90
31729;DHT22;18309;43.658;1.312;2023-01-08T14:38:12;11.50;99.90
31729;DHT22;18309;43.658;1.312;2023-01-08T14:40:50;11.40;99.90
31729;DHT22;18309;43.658;1.312;2023-01-08T14:43:21;11.50;99.90
31729;DHT22;18309;43.658;1.312;2023-01-08T14:45:50;11.40;99.90
31729;DHT22;18309;43.658;1.312;2023-01-08T14:48:34;11.40;99.90
31729;DHT22;18309;43.658;1.312;2023-01-08T14:51:09;11.40;99.90
31729;DHT22;18309;43.658;1.312;2023-01-08T14:53:41;11.40;99.90
31729;DHT22;18309;43.658;1.312;2023-01-08T14:56:12;11.40;99.90
31729;DHT22;18309;43.658;1.312;2023-01-08T14:58:40;11.50;99.90
31729;DHT22;18309;43.658;1.312;2023-01-08T15:01:15;11.50;99.90
31729;DHT22;18309;43.658;1.312;2023-01-08T15:03:43;11.40;99.90
31729;DHT22;18309;43.658;1.312;2023-01-08T15:06:09;11.40;99.90
31729;DHT22;18309;43.658;1.312;2023-01-08T15:08:36;11.40;99.90
31729;DHT22;18309;43.658;1.312;2023-01-08T15:13:36;11.50;99.90
31729;DHT22;18309;43.658;1.312;2023-01-08T15:16:31;11.50;99.90
31729;DHT22;18309;43.658;1.312;2023-01-08T15:19:00;11.50;99.90
31729;DHT22;18309;43.658;1.312;2023-01-08T15:21:27;11.50;99.90
31729;DHT22;18309;43.658;1.312;2023-01-08T15:23:55;11.50;99.90
31729;DHT22;18309;43.658;1.312;2023-01-08T15:26:22;11.50;99.90
31729;DHT22;18309;43.658;1.312;2023-01-08T15:29:12;11.50;99.90
31729;DHT22;18309;43.658;1.312;2023-01-08T15:34:07;11.50;99.90
31729;DHT22;18309;43.658;1.312;2023-01-08T15:36:33;11.60;99.90
31729;DHT22;18309;43.658;1.312;2023-01-08T15:38:59;11.60;99.90
31729;DHT22;18309;43.658;1.312;2023-01-08T15:41:32;11.60;99.90
31729;DHT22;18309;43.658;1.312;2023-01-08T15:44:16;11.60;99.90
31729;DHT22;18309;43.658;1.312;2023-01-08T15:46:42;11.50;99.90
31729;DHT22;18309;43.658;1.312;2023-01-08T15:49:07;11.50;99.90
31729;DHT22;18309;43.658;1.312;2023-01-08T15:51:34;11.50;99.90
31729;DHT22;18309;43.658;1.312;2023-01-08T15:54:01;11.40;99.90
31729;DHT22;18309;43.658;1.312;2023-01-08T15:56:27;11.40;99.90
31729;DHT22;18309;43.658;1.312;2023-01-08T15:58:53;11.40;99.90
31729;DHT22;18309;43.658;1.312;2023-01-08T16:01:19;11.50;99.90
31729;DHT22;18309;43.658;1.312;2023-01-08T16:03:44;11.50;99.90
31729;DHT22;18309;43.658;1.312;2023-01-08T16:06:10;11.40;99.90
31729;DHT22;18309;43.658;1.312;2023-01-08T16:08:36;11.40;99.90
31729;DHT22;18309;43.658;1.312;2023-01-08T16:11:02;11.40;99.90
31729;DHT22;18309;43.658;1.312;2023-01-08T16:13:27;11.40;99.90
31729;DHT22;18309;43.658;1.312;2023-01-08T16:15:53;11.40;99.90
31729;DHT22;18309;43.658;1.312;2023-01-08T16:18:20;11.40;99.90
31729;DHT22;18309;43.658;1.312;2023-01-08T16:20:46;11.40;99.90
31729;DHT22;18309;43.658;1.312;2023-01-08T16:23:11;11.40;99.90
31729;DHT22;18309;43.658;1.312;2023-01-08T16:25:40;11.30;99.90
31729;DHT22;18309;43.658;1.312;2023-01-08T16:28:06;11.40;99.90
31729;DHT22;18309;43.658;1.312;2023-01-08T16:30:31;11.30;99.90
31729;DHT22;18309;43.658;1.312;2023-01-08T16:32:57;11.20;99.90
31729;DHT22;18309;43.658;1.312;2023-01-08T16:35:23;11.30;99.90
31729;DHT22;18309;43.658;1.312;2023-01-08T16:37:49;11.20;99.90
31729;DHT22;18309;43.658;1.312;2023-01-08T16:40:15;11.10;99.90
31729;DHT22;18309;43.658;1.312;2023-01-08T16:42:41;11.10;99.90
31729;DHT22;18309;43.658;1.312;2023-01-08T16:45:07;11.10;99.90
31729;DHT22;18309;43.658;1.312;2023-01-08T16:47:37;11.10;99.90
31729;DHT22;18309;43.658;1.312;2023-01-08T16:50:05;11.00;99.90
31729;DHT22;18309;43.658;1.312;2023-01-08T16:52:31;11.00;99.90
31729;DHT22;18309;43.658;1.312;2023-01-08T16:54:56;10.90;99.90
31729;DHT22;18309;43.658;1.312;2023-01-08T16:57:22;10.90;99.90
31729;DHT22;18309;43.658;1.312;2023-01-08T16:59:48;10.90;99.90
31729;DHT22;18309;43.658;1.312;2023-01-08T17:02:13;10.80;99.90
31729;DHT22;18309;43.658;1.312;2023-01-08T17:04:39;10.90;99.90
31729;DHT22;18309;43.658;1.312;2023-01-08T17:07:05;10.90;99.90
31729;DHT22;18309;43.658;1.312;2023-01-08T17:09:31;10.90;99.90
31729;DHT22;18309;43.658;1.312;2023-01-08T17:11:57;10.80;99.90
31729;DHT22;18309;43.658;1.312;2023-01-08T17:14:22;10.90;99.90
31729;DHT22;18309;43.658;1.312;2023-01-08T17:16:48;10.90;99.90